sensor_id;sensor_type;location;lat;lon;timestamp;P1;durP1;ratioP1;P2;durP2;ratioP2
25731;SDS011;13585;50.864;4.406;2022-07-09T00:02:03;1.77;;;1.33;;
25731;SDS011;13585;50.864;4.406;2022-07-09T00:04:29;1.95;;;1.55;;
25731;SDS011;13585;50.864;4.406;2022-07-09T00:06:54;2.17;;;1.30;;
25731;SDS011;13585;50.864;4.406;2022-07-09T00:09:20;1.85;;;1.33;;
25731;SDS011;13585;50.864;4.406;2022-07-09T00:11:45;1.95;;;1.30;;
25731;SDS011;13585;50.864;4.406;2022-07-09T00:14:11;1.40;;;1.30;;
25731;SDS011;13585;50.864;4.406;2022-07-09T00:16:37;1.58;;;1.30;;
25731;SDS011;13585;50.864;4.406;2022-07-09T00:19:02;1.95;;;1.52;;
25731;SDS011;13585;50.864;4.406;2022-07-09T00:21:28;2.13;;;1.42;;
25731;SDS011;13585;50.864;4.406;2022-07-09T00:23:54;1.73;;;1.33;;
25731;SDS011;13585;50.864;4.406;2022-07-09T00:26:19;3.00;;;1.40;;
25731;SDS011;13585;50.864;4.406;2022-07-09T00:28:45;1.58;;;1.30;;
25731;SDS011;13585;50.864;4.406;2022-07-09T00:31:10;2.15;;;1.40;;
25731;SDS011;13585;50.864;4.406;2022-07-09T00:33:36;1.77;;;1.20;;
25731;SDS011;13585;50.864;4.406;2022-07-09T00:36:02;1.67;;;1.38;;
25731;SDS011;13585;50.864;4.406;2022-07-09T00:38:27;1.50;;;1.15;;
25731;SDS011;13585;50.864;4.406;2022-07-09T00:40:53;1.63;;;1.15;;
25731;SDS011;13585;50.864;4.406;2022-07-09T00:43:19;1.63;;;1.38;;
25731;SDS011;13585;50.864;4.406;2022-07-09T00:45:46;1.70;;;1.30;;
25731;SDS011;13585;50.864;4.406;2022-07-09T00:48:12;1.30;;;1.20;;
25731;SDS011;13585;50.864;4.406;2022-07-09T00:50:38;1.40;;;1.30;;
25731;SDS011;13585;50.864;4.406;2022-07-09T00:53:09;1.90;;;1.40;;
25731;SDS011;13585;50.864;4.406;2022-07-09T00:55:36;1.63;;;1.23;;
25731;SDS011;13585;50.864;4.406;2022-07-09T00:58:03;2.58;;;1.30;;
25731;SDS011;13585;50.864;4.406;2022-07-09T01:00:29;2.10;;;1.23;;
25731;SDS011;13585;50.864;4.406;2022-07-09T01:02:55;2.58;;;1.40;;
25731;SDS011;13585;50.864;4.406;2022-07-09T01:05:21;1.70;;;1.42;;
25731;SDS011;13585;50.864;4.406;2022-07-09T01:07:47;1.73;;;1.23;;
25731;SDS011;13585;50.864;4.406;2022-07-09T01:10:12;2.25;;;1.50;;
25731;SDS011;13585;50.864;4.406;2022-07-09T01:12:38;1.40;;;1.30;;
25731;SDS011;13585;50.864;4.406;2022-07-09T01:15:04;1.50;;;1.40;;
25731;SDS011;13585;50.864;4.406;2022-07-09T01:17:40;1.95;;;1.48;;
25731;SDS011;13585;50.864;4.406;2022-07-09T01:20:06;2.03;;;1.33;;
25731;SDS011;13585;50.864;4.406;2022-07-09T01:22:33;1.65;;;1.30;;
25731;SDS011;13585;50.864;4.406;2022-07-09T01:25:00;1.42;;;1.30;;
25731;SDS011;13585;50.864;4.406;2022-07-09T01:27:26;1.45;;;1.25;;
25731;SDS011;13585;50.864;4.406;2022-07-09T01:29:51;1.70;;;1.42;;
25731;SDS011;13585;50.864;4.406;2022-07-09T01:32:17;1.48;;;1.30;;
25731;SDS011;13585;50.864;4.406;2022-07-09T01:34:43;1.58;;;1.17;;
25731;SDS011;13585;50.864;4.406;2022-07-09T01:37:08;1.33;;;1.20;;
25731;SDS011;13585;50.864;4.406;2022-07-09T01:39:34;1.77;;;1.60;;
25731;SDS011;13585;50.864;4.406;2022-07-09T01:42:00;1.70;;;1.30;;
25731;SDS011;13585;50.864;4.406;2022-07-09T01:44:25;1.70;;;1.60;;
25731;SDS011;13585;50.864;4.406;2022-07-09T01:46:51;1.92;;;1.33;;
25731;SDS011;13585;50.864;4.406;2022-07-09T01:49:16;1.75;;;1.30;;
25731;SDS011;13585;50.864;4.406;2022-07-09T01:51:42;1.88;;;1.50;;
25731;SDS011;13585;50.864;4.406;2022-07-09T01:54:08;1.50;;;1.30;;
25731;SDS011;13585;50.864;4.406;2022-07-09T01:56:33;1.25;;;1.15;;
25731;SDS011;13585;50.864;4.406;2022-07-09T01:59:00;1.55;;;1.40;;
25731;SDS011;13585;50.864;4.406;2022-07-09T02:01:26;2.22;;;1.50;;
25731;SDS011;13585;50.864;4.406;2022-07-09T02:03:51;1.48;;;1.20;;
25731;SDS011;13585;50.864;4.406;2022-07-09T02:06:17;1.42;;;1.33;;
25731;SDS011;13585;50.864;4.406;2022-07-09T02:08:43;2.22;;;1.60;;
25731;SDS011;13585;50.864;4.406;2022-07-09T02:11:09;1.60;;;1.20;;
25731;SDS011;13585;50.864;4.406;2022-07-09T02:13:35;1.75;;;1.40;;
25731;SDS011;13585;50.864;4.406;2022-07-09T02:16:01;2.08;;;1.38;;
25731;SDS011;13585;50.864;4.406;2022-07-09T02:18:27;1.95;;;1.40;;
25731;SDS011;13585;50.864;4.406;2022-07-09T02:20:53;2.22;;;1.15;;
25731;SDS011;13585;50.864;4.406;2022-07-09T02:23:21;1.40;;;1.23;;
25731;SDS011;13585;50.864;4.406;2022-07-09T02:25:47;2.03;;;1.50;;
25731;SDS011;13585;50.864;4.406;2022-07-09T02:28:12;1.50;;;1.40;;
25731;SDS011;13585;50.864;4.406;2022-07-09T02:30:38;1.88;;;1.20;;
25731;SDS011;13585;50.864;4.406;2022-07-09T02:33:04;2.25;;;1.50;;
25731;SDS011;13585;50.864;4.406;2022-07-09T02:35:30;1.48;;;1.30;;
25731;SDS011;13585;50.864;4.406;2022-07-09T02:37:56;3.22;;;1.38;;
25731;SDS011;13585;50.864;4.406;2022-07-09T02:40:21;2.13;;;1.50;;
25731;SDS011;13585;50.864;4.406;2022-07-09T02:42:47;2.25;;;1.48;;
25731;SDS011;13585;50.864;4.406;2022-07-09T02:45:13;1.92;;;1.30;;
25731;SDS011;13585;50.864;4.406;2022-07-09T02:47:38;2.40;;;1.42;;
25731;SDS011;13585;50.864;4.406;2022-07-09T02:50:04;1.90;;;1.42;;
25731;SDS011;13585;50.864;4.406;2022-07-09T02:52:30;1.48;;;1.38;;
25731;SDS011;13585;50.864;4.406;2022-07-09T02:54:56;2.13;;;1.55;;
25731;SDS011;13585;50.864;4.406;2022-07-09T02:57:22;1.73;;;1.50;;
25731;SDS011;13585;50.864;4.406;2022-07-09T02:59:47;1.65;;;1.33;;
25731;SDS011;13585;50.864;4.406;2022-07-09T03:02:13;2.65;;;1.58;;
25731;SDS011;13585;50.864;4.406;2022-07-09T03:04:38;2.13;;;1.30;;
25731;SDS011;13585;50.864;4.406;2022-07-09T03:07:04;1.98;;;1.50;;
25731;SDS011;13585;50.864;4.406;2022-07-09T03:09:30;1.40;;;1.30;;
25731;SDS011;13585;50.864;4.406;2022-07-09T03:11:55;3.45;;;1.50;;
25731;SDS011;13585;50.864;4.406;2022-07-09T03:14:21;3.70;;;1.85;;
25731;SDS011;13585;50.864;4.406;2022-07-09T03:16:46;1.55;;;1.23;;
25731;SDS011;13585;50.864;4.406;2022-07-09T03:19:12;1.63;;;1.35;;
25731;SDS011;13585;50.864;4.406;2022-07-09T03:21:39;2.47;;;1.20;;
25731;SDS011;13585;50.864;4.406;2022-07-09T03:24:04;2.17;;;1.40;;
25731;SDS011;13585;50.864;4.406;2022-07-09T03:26:30;1.95;;;1.65;;
25731;SDS011;13585;50.864;4.406;2022-07-09T03:28:56;1.90;;;1.40;;
25731;SDS011;13585;50.864;4.406;2022-07-09T03:31:21;3.20;;;1.30;;
25731;SDS011;13585;50.864;4.406;2022-07-09T03:33:47;1.75;;;1.38;;
25731;SDS011;13585;50.864;4.406;2022-07-09T03:36:14;1.50;;;1.30;;
25731;SDS011;13585;50.864;4.406;2022-07-09T03:38:40;2.20;;;1.48;;
25731;SDS011;13585;50.864;4.406;2022-07-09T03:41:05;1.98;;;1.30;;
25731;SDS011;13585;50.864;4.406;2022-07-09T03:43:31;2.10;;;1.40;;
25731;SDS011;13585;50.864;4.406;2022-07-09T03:45:57;2.03;;;1.60;;
25731;SDS011;13585;50.864;4.406;2022-07-09T03:48:22;2.28;;;1.42;;
25731;SDS011;13585;50.864;4.406;2022-07-09T03:50:48;2.53;;;1.50;;
25731;SDS011;13585;50.864;4.406;2022-07-09T03:53:13;3.38;;;1.40;;
25731;SDS011;13585;50.864;4.406;2022-07-09T03:55:39;2.83;;;1.50;;
25731;SDS011;13585;50.864;4.406;2022-07-09T03:58:05;1.63;;;1.40;;
25731;SDS011;13585;50.864;4.406;2022-07-09T04:00:30;2.42;;;1.52;;
25731;SDS011;13585;50.864;4.406;2022-07-09T04:02:56;1.67;;;1.40;;
25731;SDS011;13585;50.864;4.406;2022-07-09T04:05:22;1.75;;;1.20;;
25731;SDS011;13585;50.864;4.406;2022-07-09T04:07:47;2.28;;;1.60;;
25731;SDS011;13585;50.864;4.406;2022-07-09T04:10:13;1.92;;;1.40;;
25731;SDS011;13585;50.864;4.406;2022-07-09T04:12:38;2.13;;;1.63;;
25731;SDS011;13585;50.864;4.406;2022-07-09T04:15:04;2.83;;;1.70;;
25731;SDS011;13585;50.864;4.406;2022-07-09T04:17:30;1.77;;;1.30;;
25731;SDS011;13585;50.864;4.406;2022-07-09T04:19:56;1.70;;;1.30;;
25731;SDS011;13585;50.864;4.406;2022-07-09T04:22:21;1.63;;;1.23;;
25731;SDS011;13585;50.864;4.406;2022-07-09T04:24:47;2.13;;;1.48;;
25731;SDS011;13585;50.864;4.406;2022-07-09T04:27:12;2.22;;;1.80;;
25731;SDS011;13585;50.864;4.406;2022-07-09T04:29:38;1.90;;;1.52;;
25731;SDS011;13585;50.864;4.406;2022-07-09T04:32:04;2.08;;;1.25;;
25731;SDS011;13585;50.864;4.406;2022-07-09T04:34:29;1.92;;;1.50;;
25731;SDS011;13585;50.864;4.406;2022-07-09T04:36:55;1.60;;;1.50;;
25731;SDS011;13585;50.864;4.406;2022-07-09T04:39:20;2.78;;;1.50;;
25731;SDS011;13585;50.864;4.406;2022-07-09T04:41:49;2.38;;;1.30;;
25731;SDS011;13585;50.864;4.406;2022-07-09T04:44:15;1.45;;;1.35;;
25731;SDS011;13585;50.864;4.406;2022-07-09T04:46:41;2.97;;;1.95;;
25731;SDS011;13585;50.864;4.406;2022-07-09T04:49:08;2.33;;;1.50;;
25731;SDS011;13585;50.864;4.406;2022-07-09T04:51:34;2.10;;;1.50;;
25731;SDS011;13585;50.864;4.406;2022-07-09T04:54:00;1.92;;;1.60;;
25731;SDS011;13585;50.864;4.406;2022-07-09T04:56:25;1.73;;;1.40;;
25731;SDS011;13585;50.864;4.406;2022-07-09T04:58:51;2.15;;;1.40;;
25731;SDS011;13585;50.864;4.406;2022-07-09T05:01:17;1.63;;;1.20;;
25731;SDS011;13585;50.864;4.406;2022-07-09T05:03:47;1.80;;;1.35;;
25731;SDS011;13585;50.864;4.406;2022-07-09T05:06:14;1.77;;;1.38;;
25731;SDS011;13585;50.864;4.406;2022-07-09T05:08:41;1.60;;;1.30;;
25731;SDS011;13585;50.864;4.406;2022-07-09T05:11:09;1.98;;;1.50;;
25731;SDS011;13585;50.864;4.406;2022-07-09T05:13:38;1.98;;;1.38;;
25731;SDS011;13585;50.864;4.406;2022-07-09T05:16:07;1.98;;;1.38;;
25731;SDS011;13585;50.864;4.406;2022-07-09T05:18:34;2.45;;;1.70;;
25731;SDS011;13585;50.864;4.406;2022-07-09T05:21:00;2.83;;;1.55;;
25731;SDS011;13585;50.864;4.406;2022-07-09T05:23:26;2.78;;;1.48;;
25731;SDS011;13585;50.864;4.406;2022-07-09T05:25:51;1.40;;;1.30;;
25731;SDS011;13585;50.864;4.406;2022-07-09T05:28:18;3.03;;;1.48;;
25731;SDS011;13585;50.864;4.406;2022-07-09T05:30:43;2.10;;;1.70;;
25731;SDS011;13585;50.864;4.406;2022-07-09T05:33:09;2.53;;;1.65;;
25731;SDS011;13585;50.864;4.406;2022-07-09T05:35:35;2.75;;;1.58;;
25731;SDS011;13585;50.864;4.406;2022-07-09T05:38:00;1.92;;;1.52;;
25731;SDS011;13585;50.864;4.406;2022-07-09T05:40:26;2.85;;;1.50;;
25731;SDS011;13585;50.864;4.406;2022-07-09T05:42:52;2.40;;;1.65;;
25731;SDS011;13585;50.864;4.406;2022-07-09T05:45:17;2.42;;;1.80;;
25731;SDS011;13585;50.864;4.406;2022-07-09T05:47:43;1.75;;;1.50;;
25731;SDS011;13585;50.864;4.406;2022-07-09T05:50:09;1.80;;;1.42;;
25731;SDS011;13585;50.864;4.406;2022-07-09T05:52:35;1.77;;;1.38;;
25731;SDS011;13585;50.864;4.406;2022-07-09T05:55:00;2.28;;;1.58;;
25731;SDS011;13585;50.864;4.406;2022-07-09T05:57:28;2.90;;;1.63;;
25731;SDS011;13585;50.864;4.406;2022-07-09T05:59:54;1.70;;;1.60;;
25731;SDS011;13585;50.864;4.406;2022-07-09T06:02:20;3.05;;;1.80;;
25731;SDS011;13585;50.864;4.406;2022-07-09T06:04:47;1.55;;;1.38;;
25731;SDS011;13585;50.864;4.406;2022-07-09T06:07:13;2.30;;;1.60;;
25731;SDS011;13585;50.864;4.406;2022-07-09T06:09:38;2.53;;;1.50;;
25731;SDS011;13585;50.864;4.406;2022-07-09T06:12:04;2.22;;;1.60;;
25731;SDS011;13585;50.864;4.406;2022-07-09T06:14:30;2.58;;;1.60;;
25731;SDS011;13585;50.864;4.406;2022-07-09T06:16:56;2.88;;;1.67;;
25731;SDS011;13585;50.864;4.406;2022-07-09T06:19:22;2.65;;;1.50;;
25731;SDS011;13585;50.864;4.406;2022-07-09T06:21:47;2.20;;;1.40;;
25731;SDS011;13585;50.864;4.406;2022-07-09T06:24:13;1.92;;;1.60;;
25731;SDS011;13585;50.864;4.406;2022-07-09T06:26:39;3.10;;;1.60;;
25731;SDS011;13585;50.864;4.406;2022-07-09T06:29:04;1.80;;;1.50;;
25731;SDS011;13585;50.864;4.406;2022-07-09T06:31:30;1.70;;;1.40;;
25731;SDS011;13585;50.864;4.406;2022-07-09T06:33:56;1.50;;;1.40;;
25731;SDS011;13585;50.864;4.406;2022-07-09T06:36:23;2.00;;;1.45;;
25731;SDS011;13585;50.864;4.406;2022-07-09T06:38:48;1.70;;;1.45;;
25731;SDS011;13585;50.864;4.406;2022-07-09T06:41:33;2.90;;;1.85;;
25731;SDS011;13585;50.864;4.406;2022-07-09T06:43:58;2.75;;;1.50;;
25731;SDS011;13585;50.864;4.406;2022-07-09T06:46:24;2.17;;;1.48;;
25731;SDS011;13585;50.864;4.406;2022-07-09T06:48:50;1.73;;;1.50;;
25731;SDS011;13585;50.864;4.406;2022-07-09T06:51:15;1.77;;;1.40;;
25731;SDS011;13585;50.864;4.406;2022-07-09T06:53:41;1.48;;;1.33;;
25731;SDS011;13585;50.864;4.406;2022-07-09T06:56:07;2.00;;;1.60;;
25731;SDS011;13585;50.864;4.406;2022-07-09T06:58:32;2.75;;;1.60;;
25731;SDS011;13585;50.864;4.406;2022-07-09T07:00:58;2.35;;;1.50;;
25731;SDS011;13585;50.864;4.406;2022-07-09T07:03:24;2.00;;;1.58;;
25731;SDS011;13585;50.864;4.406;2022-07-09T07:05:49;2.13;;;1.45;;
25731;SDS011;13585;50.864;4.406;2022-07-09T07:08:15;3.40;;;1.95;;
25731;SDS011;13585;50.864;4.406;2022-07-09T07:10:40;2.90;;;1.90;;
25731;SDS011;13585;50.864;4.406;2022-07-09T07:13:06;1.92;;;1.50;;
25731;SDS011;13585;50.864;4.406;2022-07-09T07:15:31;2.90;;;1.80;;
25731;SDS011;13585;50.864;4.406;2022-07-09T07:17:57;1.55;;;1.45;;
25731;SDS011;13585;50.864;4.406;2022-07-09T07:20:23;2.30;;;1.70;;
25731;SDS011;13585;50.864;4.406;2022-07-09T07:22:50;1.98;;;1.58;;
25731;SDS011;13585;50.864;4.406;2022-07-09T07:25:16;2.67;;;1.80;;
25731;SDS011;13585;50.864;4.406;2022-07-09T07:27:41;1.90;;;1.52;;
25731;SDS011;13585;50.864;4.406;2022-07-09T07:30:07;3.10;;;1.80;;
25731;SDS011;13585;50.864;4.406;2022-07-09T07:32:33;2.92;;;1.67;;
25731;SDS011;13585;50.864;4.406;2022-07-09T07:34:59;3.55;;;2.08;;
25731;SDS011;13585;50.864;4.406;2022-07-09T07:37:25;1.95;;;1.60;;
25731;SDS011;13585;50.864;4.406;2022-07-09T07:39:51;2.25;;;1.58;;
25731;SDS011;13585;50.864;4.406;2022-07-09T07:42:16;4.32;;;1.70;;
25731;SDS011;13585;50.864;4.406;2022-07-09T07:44:42;2.88;;;1.80;;
25731;SDS011;13585;50.864;4.406;2022-07-09T07:47:08;4.45;;;1.80;;
25731;SDS011;13585;50.864;4.406;2022-07-09T07:49:33;3.22;;;1.70;;
25731;SDS011;13585;50.864;4.406;2022-07-09T07:51:59;4.38;;;1.90;;
25731;SDS011;13585;50.864;4.406;2022-07-09T07:54:24;3.95;;;1.80;;
25731;SDS011;13585;50.864;4.406;2022-07-09T07:56:51;3.35;;;1.90;;
25731;SDS011;13585;50.864;4.406;2022-07-09T07:59:17;3.92;;;2.03;;
25731;SDS011;13585;50.864;4.406;2022-07-09T08:01:43;4.90;;;1.92;;
25731;SDS011;13585;50.864;4.406;2022-07-09T08:04:08;3.10;;;1.90;;
25731;SDS011;13585;50.864;4.406;2022-07-09T08:06:34;4.70;;;2.35;;
25731;SDS011;13585;50.864;4.406;2022-07-09T08:09:01;4.45;;;2.17;;
25731;SDS011;13585;50.864;4.406;2022-07-09T08:11:29;6.75;;;2.45;;
25731;SDS011;13585;50.864;4.406;2022-07-09T08:13:55;4.90;;;2.20;;
25731;SDS011;13585;50.864;4.406;2022-07-09T08:16:20;3.33;;;2.15;;
25731;SDS011;13585;50.864;4.406;2022-07-09T08:18:46;6.18;;;2.00;;
25731;SDS011;13585;50.864;4.406;2022-07-09T08:21:13;3.55;;;2.20;;
25731;SDS011;13585;50.864;4.406;2022-07-09T08:23:39;2.92;;;1.90;;
25731;SDS011;13585;50.864;4.406;2022-07-09T08:26:17;2.53;;;1.95;;
25731;SDS011;13585;50.864;4.406;2022-07-09T08:28:44;4.10;;;2.10;;
25731;SDS011;13585;50.864;4.406;2022-07-09T08:31:09;3.13;;;2.10;;
25731;SDS011;13585;50.864;4.406;2022-07-09T08:33:35;5.85;;;2.50;;
25731;SDS011;13585;50.864;4.406;2022-07-09T08:36:02;5.40;;;2.83;;
25731;SDS011;13585;50.864;4.406;2022-07-09T08:38:28;6.40;;;3.05;;
25731;SDS011;13585;50.864;4.406;2022-07-09T08:40:55;5.22;;;2.45;;
25731;SDS011;13585;50.864;4.406;2022-07-09T08:43:23;5.95;;;2.80;;
25731;SDS011;13585;50.864;4.406;2022-07-09T08:45:49;6.38;;;2.65;;
25731;SDS011;13585;50.864;4.406;2022-07-09T08:48:18;6.68;;;2.92;;
25731;SDS011;13585;50.864;4.406;2022-07-09T08:50:43;7.10;;;2.83;;
25731;SDS011;13585;50.864;4.406;2022-07-09T08:53:10;5.38;;;2.75;;
25731;SDS011;13585;50.864;4.406;2022-07-09T08:55:38;7.53;;;2.97;;
25731;SDS011;13585;50.864;4.406;2022-07-09T08:58:04;6.97;;;3.13;;
25731;SDS011;13585;50.864;4.406;2022-07-09T09:00:31;6.22;;;2.95;;
25731;SDS011;13585;50.864;4.406;2022-07-09T09:02:57;6.75;;;2.90;;
25731;SDS011;13585;50.864;4.406;2022-07-09T09:05:22;4.78;;;2.85;;
25731;SDS011;13585;50.864;4.406;2022-07-09T09:07:48;5.03;;;2.50;;
25731;SDS011;13585;50.864;4.406;2022-07-09T09:10:21;6.07;;;2.60;;
25731;SDS011;13585;50.864;4.406;2022-07-09T09:12:57;5.40;;;2.65;;
25731;SDS011;13585;50.864;4.406;2022-07-09T09:15:24;4.95;;;2.47;;
25731;SDS011;13585;50.864;4.406;2022-07-09T09:17:50;5.22;;;2.55;;
25731;SDS011;13585;50.864;4.406;2022-07-09T09:20:16;8.05;;;2.78;;
25731;SDS011;13585;50.864;4.406;2022-07-09T09:22:53;4.28;;;2.55;;
25731;SDS011;13585;50.864;4.406;2022-07-09T09:25:24;3.72;;;2.28;;
25731;SDS011;13585;50.864;4.406;2022-07-09T09:27:53;7.15;;;2.55;;
25731;SDS011;13585;50.864;4.406;2022-07-09T09:30:20;4.88;;;2.30;;
25731;SDS011;13585;50.864;4.406;2022-07-09T09:32:54;4.80;;;2.67;;
25731;SDS011;13585;50.864;4.406;2022-07-09T09:35:26;6.38;;;2.45;;
25731;SDS011;13585;50.864;4.406;2022-07-09T09:37:52;5.65;;;2.50;;
25731;SDS011;13585;50.864;4.406;2022-07-09T09:40:18;4.70;;;2.53;;
25731;SDS011;13585;50.864;4.406;2022-07-09T09:42:44;3.50;;;2.58;;
25731;SDS011;13585;50.864;4.406;2022-07-09T09:45:14;4.97;;;2.55;;
25731;SDS011;13585;50.864;4.406;2022-07-09T09:47:48;5.05;;;2.60;;
25731;SDS011;13585;50.864;4.406;2022-07-09T09:50:23;3.33;;;2.30;;
25731;SDS011;13585;50.864;4.406;2022-07-09T09:52:51;3.65;;;2.65;;
25731;SDS011;13585;50.864;4.406;2022-07-09T09:55:20;6.90;;;3.55;;
25731;SDS011;13585;50.864;4.406;2022-07-09T09:57:47;6.32;;;4.10;;
25731;SDS011;13585;50.864;4.406;2022-07-09T10:00:14;5.05;;;3.88;;
25731;SDS011;13585;50.864;4.406;2022-07-09T10:02:43;9.57;;;5.00;;
25731;SDS011;13585;50.864;4.406;2022-07-09T10:05:10;8.23;;;4.25;;
25731;SDS011;13585;50.864;4.406;2022-07-09T10:07:35;7.50;;;5.10;;
25731;SDS011;13585;50.864;4.406;2022-07-09T10:10:02;6.63;;;4.75;;
25731;SDS011;13585;50.864;4.406;2022-07-09T10:12:32;9.52;;;6.00;;
25731;SDS011;13585;50.864;4.406;2022-07-09T10:14:59;8.45;;;6.03;;
25731;SDS011;13585;50.864;4.406;2022-07-09T10:17:25;8.38;;;6.93;;
25731;SDS011;13585;50.864;4.406;2022-07-09T10:19:56;10.25;;;7.47;;
25731;SDS011;13585;50.864;4.406;2022-07-09T10:22:39;12.48;;;8.13;;
25731;SDS011;13585;50.864;4.406;2022-07-09T10:25:09;12.32;;;7.78;;
25731;SDS011;13585;50.864;4.406;2022-07-09T10:27:43;12.35;;;8.95;;
25731;SDS011;13585;50.864;4.406;2022-07-09T10:30:31;17.05;;;11.02;;
25731;SDS011;13585;50.864;4.406;2022-07-09T10:33:06;13.23;;;11.68;;
25731;SDS011;13585;50.864;4.406;2022-07-09T10:35:46;13.20;;;11.80;;
25731;SDS011;13585;50.864;4.406;2022-07-09T10:38:14;13.43;;;10.90;;
25731;SDS011;13585;50.864;4.406;2022-07-09T10:43:40;13.90;;;10.73;;
25731;SDS011;13585;50.864;4.406;2022-07-09T10:46:11;15.65;;;11.40;;
25731;SDS011;13585;50.864;4.406;2022-07-09T10:48:37;16.85;;;11.38;;
25731;SDS011;13585;50.864;4.406;2022-07-09T10:51:03;13.30;;;11.23;;
25731;SDS011;13585;50.864;4.406;2022-07-09T10:53:29;13.20;;;9.90;;
25731;SDS011;13585;50.864;4.406;2022-07-09T10:55:55;11.43;;;9.27;;
25731;SDS011;13585;50.864;4.406;2022-07-09T10:58:21;10.82;;;8.30;;
25731;SDS011;13585;50.864;4.406;2022-07-09T11:00:55;13.88;;;7.25;;
25731;SDS011;13585;50.864;4.406;2022-07-09T11:03:25;11.48;;;6.90;;
25731;SDS011;13585;50.864;4.406;2022-07-09T11:05:57;12.02;;;6.97;;
25731;SDS011;13585;50.864;4.406;2022-07-09T11:08:24;10.27;;;6.38;;
25731;SDS011;13585;50.864;4.406;2022-07-09T11:10:49;6.72;;;5.72;;
25731;SDS011;13585;50.864;4.406;2022-07-09T11:13:15;7.68;;;5.40;;
25731;SDS011;13585;50.864;4.406;2022-07-09T11:15:41;10.98;;;5.72;;
25731;SDS011;13585;50.864;4.406;2022-07-09T11:18:10;7.82;;;4.65;;
25731;SDS011;13585;50.864;4.406;2022-07-09T11:20:45;7.82;;;4.40;;
25731;SDS011;13585;50.864;4.406;2022-07-09T11:23:12;11.40;;;4.15;;
25731;SDS011;13585;50.864;4.406;2022-07-09T11:25:40;6.28;;;3.50;;
25731;SDS011;13585;50.864;4.406;2022-07-09T11:28:06;6.15;;;3.30;;
25731;SDS011;13585;50.864;4.406;2022-07-09T11:30:33;5.70;;;3.50;;
25731;SDS011;13585;50.864;4.406;2022-07-09T11:32:59;9.65;;;2.85;;
25731;SDS011;13585;50.864;4.406;2022-07-09T11:35:25;3.13;;;2.33;;
25731;SDS011;13585;50.864;4.406;2022-07-09T11:38:00;5.18;;;2.80;;
25731;SDS011;13585;50.864;4.406;2022-07-09T11:40:27;4.55;;;2.20;;
25731;SDS011;13585;50.864;4.406;2022-07-09T11:42:53;4.95;;;2.15;;
25731;SDS011;13585;50.864;4.406;2022-07-09T11:45:23;4.03;;;1.98;;
25731;SDS011;13585;50.864;4.406;2022-07-09T11:48:08;2.83;;;1.95;;
25731;SDS011;13585;50.864;4.406;2022-07-09T11:50:41;4.70;;;1.90;;
25731;SDS011;13585;50.864;4.406;2022-07-09T11:53:20;2.42;;;1.70;;
25731;SDS011;13585;50.864;4.406;2022-07-09T11:55:56;5.13;;;1.80;;
25731;SDS011;13585;50.864;4.406;2022-07-09T11:58:26;1.90;;;1.48;;
25731;SDS011;13585;50.864;4.406;2022-07-09T12:00:52;3.45;;;1.83;;
25731;SDS011;13585;50.864;4.406;2022-07-09T12:03:24;1.40;;;1.30;;
25731;SDS011;13585;50.864;4.406;2022-07-09T12:05:51;2.55;;;1.75;;
25731;SDS011;13585;50.864;4.406;2022-07-09T12:08:25;3.15;;;1.08;;
25731;SDS011;13585;50.864;4.406;2022-07-09T12:10:55;1.70;;;1.50;;
25731;SDS011;13585;50.864;4.406;2022-07-09T12:13:21;2.75;;;1.25;;
25731;SDS011;13585;50.864;4.406;2022-07-09T12:15:47;2.75;;;1.33;;
25731;SDS011;13585;50.864;4.406;2022-07-09T12:18:13;2.10;;;1.20;;
25731;SDS011;13585;50.864;4.406;2022-07-09T12:20:38;1.00;;;0.90;;
25731;SDS011;13585;50.864;4.406;2022-07-09T12:23:04;2.30;;;1.17;;
25731;SDS011;13585;50.864;4.406;2022-07-09T12:25:30;2.88;;;1.15;;
25731;SDS011;13585;50.864;4.406;2022-07-09T12:27:55;1.50;;;1.00;;
25731;SDS011;13585;50.864;4.406;2022-07-09T12:30:21;1.75;;;1.00;;
25731;SDS011;13585;50.864;4.406;2022-07-09T12:32:47;4.28;;;1.05;;
25731;SDS011;13585;50.864;4.406;2022-07-09T12:35:13;1.40;;;1.17;;
25731;SDS011;13585;50.864;4.406;2022-07-09T12:37:39;3.70;;;0.82;;
25731;SDS011;13585;50.864;4.406;2022-07-09T12:40:05;1.73;;;1.10;;
25731;SDS011;13585;50.864;4.406;2022-07-09T12:42:32;1.60;;;1.00;;
25731;SDS011;13585;50.864;4.406;2022-07-09T12:44:58;4.22;;;1.30;;
25731;SDS011;13585;50.864;4.406;2022-07-09T12:47:24;2.90;;;0.90;;
25731;SDS011;13585;50.864;4.406;2022-07-09T12:49:50;1.40;;;0.80;;
25731;SDS011;13585;50.864;4.406;2022-07-09T12:52:16;3.25;;;0.90;;
25731;SDS011;13585;50.864;4.406;2022-07-09T12:54:41;5.80;;;1.30;;
25731;SDS011;13585;50.864;4.406;2022-07-09T12:57:07;2.08;;;0.80;;
25731;SDS011;13585;50.864;4.406;2022-07-09T12:59:33;2.03;;;0.90;;
25731;SDS011;13585;50.864;4.406;2022-07-09T13:01:59;1.50;;;0.85;;
25731;SDS011;13585;50.864;4.406;2022-07-09T13:04:24;0.90;;;0.50;;
25731;SDS011;13585;50.864;4.406;2022-07-09T13:06:50;2.22;;;0.80;;
25731;SDS011;13585;50.864;4.406;2022-07-09T13:09:16;1.98;;;0.90;;
25731;SDS011;13585;50.864;4.406;2022-07-09T13:11:42;2.70;;;0.70;;
25731;SDS011;13585;50.864;4.406;2022-07-09T13:14:07;2.22;;;0.77;;
25731;SDS011;13585;50.864;4.406;2022-07-09T13:16:36;2.72;;;0.98;;
25731;SDS011;13585;50.864;4.406;2022-07-09T13:19:02;1.88;;;0.90;;
25731;SDS011;13585;50.864;4.406;2022-07-09T13:21:28;1.15;;;0.70;;
25731;SDS011;13585;50.864;4.406;2022-07-09T13:23:57;1.27;;;0.80;;
25731;SDS011;13585;50.864;4.406;2022-07-09T13:26:23;1.67;;;0.80;;
25731;SDS011;13585;50.864;4.406;2022-07-09T13:28:48;1.77;;;0.85;;
25731;SDS011;13585;50.864;4.406;2022-07-09T13:31:14;3.63;;;0.80;;
25731;SDS011;13585;50.864;4.406;2022-07-09T13:33:40;1.85;;;0.60;;
25731;SDS011;13585;50.864;4.406;2022-07-09T13:36:06;1.15;;;0.80;;
25731;SDS011;13585;50.864;4.406;2022-07-09T13:38:32;4.95;;;0.90;;
25731;SDS011;13585;50.864;4.406;2022-07-09T13:40:58;2.75;;;0.90;;
25731;SDS011;13585;50.864;4.406;2022-07-09T13:43:24;1.08;;;0.90;;
25731;SDS011;13585;50.864;4.406;2022-07-09T13:45:57;2.03;;;0.85;;
25731;SDS011;13585;50.864;4.406;2022-07-09T13:48:23;3.45;;;0.88;;
25731;SDS011;13585;50.864;4.406;2022-07-09T13:50:50;3.58;;;1.10;;
25731;SDS011;13585;50.864;4.406;2022-07-09T13:53:15;2.20;;;1.02;;
25731;SDS011;13585;50.864;4.406;2022-07-09T13:55:41;2.50;;;1.15;;
25731;SDS011;13585;50.864;4.406;2022-07-09T13:58:07;2.70;;;1.13;;
25731;SDS011;13585;50.864;4.406;2022-07-09T14:00:33;2.22;;;0.93;;
25731;SDS011;13585;50.864;4.406;2022-07-09T14:02:59;3.03;;;0.80;;
25731;SDS011;13585;50.864;4.406;2022-07-09T14:05:25;1.95;;;0.77;;
25731;SDS011;13585;50.864;4.406;2022-07-09T14:07:51;1.70;;;0.80;;
25731;SDS011;13585;50.864;4.406;2022-07-09T14:10:16;1.38;;;0.90;;
25731;SDS011;13585;50.864;4.406;2022-07-09T14:12:42;2.15;;;0.93;;
25731;SDS011;13585;50.864;4.406;2022-07-09T14:15:08;1.90;;;1.02;;
25731;SDS011;13585;50.864;4.406;2022-07-09T14:17:34;2.45;;;0.98;;
25731;SDS011;13585;50.864;4.406;2022-07-09T14:20:00;1.45;;;0.85;;
25731;SDS011;13585;50.864;4.406;2022-07-09T14:22:26;3.83;;;0.90;;
25731;SDS011;13585;50.864;4.406;2022-07-09T14:24:52;1.85;;;0.98;;
25731;SDS011;13585;50.864;4.406;2022-07-09T14:27:19;1.90;;;0.90;;
25731;SDS011;13585;50.864;4.406;2022-07-09T14:29:45;2.10;;;1.10;;
25731;SDS011;13585;50.864;4.406;2022-07-09T14:32:10;2.78;;;1.10;;
25731;SDS011;13585;50.864;4.406;2022-07-09T14:34:36;2.58;;;1.00;;
25731;SDS011;13585;50.864;4.406;2022-07-09T14:37:02;2.35;;;0.88;;
25731;SDS011;13585;50.864;4.406;2022-07-09T14:39:28;2.95;;;0.98;;
25731;SDS011;13585;50.864;4.406;2022-07-09T14:41:54;2.85;;;0.90;;
25731;SDS011;13585;50.864;4.406;2022-07-09T14:44:20;1.23;;;0.80;;
25731;SDS011;13585;50.864;4.406;2022-07-09T14:46:45;2.72;;;0.95;;